createdAt,value
2022-08-17T00:01:28.310Z,98854.44
2022-08-17T00:04:16.474Z,98861.03
2022-08-17T00:07:04.847Z,98851.28
2022-08-17T00:09:51.134Z,98857.09
2022-08-17T00:12:44.839Z,98852.03
2022-08-17T00:15:31.333Z,98853.94
2022-08-17T00:19:01.092Z,98850.75
2022-08-17T00:21:25.277Z,98854.31
2022-08-17T00:24:12.119Z,98851.53
2022-08-17T00:26:58.516Z,98855.34
2022-08-17T00:29:44.880Z,98855.75
2022-08-17T00:33:11.611Z,98855.34
2022-08-17T00:35:48.178Z,98858.09
2022-08-17T00:38:35.216Z,98855.75
2022-08-17T00:41:24.929Z,98857.31
2022-08-17T00:44:11.214Z,98851.47
2022-08-17T00:46:57.594Z,98854.16
2022-08-17T00:49:43.890Z,98862.00
2022-08-17T00:52:36.282Z,98844.50
2022-08-17T00:55:23.588Z,98857.03
2022-08-17T00:58:10.465Z,98855.31
2022-08-17T01:00:56.864Z,98860.06
2022-08-17T01:03:43.310Z,98862.25
2022-08-17T01:06:29.835Z,98862.69
2022-08-17T01:09:17.421Z,98857.94
2022-08-17T01:12:04.125Z,98858.72
2022-08-17T01:14:55.320Z,98858.34
2022-08-17T01:17:41.972Z,98861.09
2022-08-17T01:20:28.302Z,98861.34
2022-08-17T01:23:20.579Z,98861.53
2022-08-17T01:26:07.015Z,98853.94
2022-08-17T01:28:55.795Z,98855.63
2022-08-17T01:31:49.411Z,98859.09
2022-08-17T01:34:42.994Z,98861.41
2022-08-17T01:37:36.255Z,98861.03
2022-08-17T01:40:25.680Z,98861.94
2022-08-17T01:43:16.007Z,98857.63
2022-08-17T01:46:03.785Z,98859.28
2022-08-17T01:48:50.361Z,98861.22
2022-08-17T01:51:37.217Z,98863.56
2022-08-17T01:54:24.362Z,98862.47
2022-08-17T01:57:11.013Z,98876.12
2022-08-17T01:59:56.600Z,98864.41
2022-08-17T02:02:43.042Z,98862.06
2022-08-17T02:05:29.430Z,98861.66
2022-08-17T02:08:20.130Z,98851.56
2022-08-17T02:11:11.714Z,98853.22
2022-08-17T02:14:01.059Z,98847.25
2022-08-17T02:16:49.864Z,98855.56
2022-08-17T02:19:35.905Z,98858.59
2022-08-17T02:22:22.833Z,98859.78
2022-08-17T02:25:10.306Z,98855.47
2022-08-17T02:27:56.776Z,98857.41
2022-08-17T02:31:01.746Z,98863.63
2022-08-17T02:34:00.554Z,98865.13
2022-08-17T02:36:50.353Z,98863.06
2022-08-17T02:39:36.822Z,98860.34
2022-08-17T02:42:30.046Z,98860.34
2022-08-17T02:45:20.158Z,98855.97
2022-08-17T02:48:05.890Z,98858.63
2022-08-17T02:50:52.200Z,98857.19
2022-08-17T02:53:38.603Z,98854.78
2022-08-17T02:56:24.870Z,98864.91
2022-08-17T02:59:10.698Z,98860.56
2022-08-17T03:01:57.271Z,98863.31
2022-08-17T03:04:43.424Z,98863.03
2022-08-17T03:07:29.776Z,98865.84
2022-08-17T03:10:15.609Z,98870.56
2022-08-17T03:13:01.859Z,98867.44
2022-08-17T03:15:48.670Z,98873.25
2022-08-17T03:18:35.087Z,98872.41
2022-08-17T03:21:21.037Z,98870.44
2022-08-17T03:24:09.159Z,98871.59
2022-08-17T03:26:54.991Z,98872.31
2022-08-17T03:29:41.102Z,98874.69
2022-08-17T03:32:27.145Z,98881.31
2022-08-17T03:35:15.053Z,98881.34
2022-08-17T03:38:04.437Z,98880.63
2022-08-17T03:40:56.465Z,98889.59
2022-08-17T03:43:45.246Z,98882.19
2022-08-17T03:46:35.227Z,98882.59
2022-08-17T03:49:21.747Z,98890.78
2022-08-17T03:52:07.748Z,98878.31
2022-08-17T03:54:53.767Z,98879.72
2022-08-17T03:57:39.950Z,98885.19
2022-08-17T04:00:25.920Z,98888.94
2022-08-17T04:03:13.605Z,98889.69
2022-08-17T04:05:59.617Z,98894.78
2022-08-17T04:08:45.627Z,98889.47
2022-08-17T04:11:32.732Z,98898.72
2022-08-17T04:14:18.907Z,98900.28
2022-08-17T04:17:05.566Z,98905.66
2022-08-17T04:19:52.077Z,98909.09
2022-08-17T04:22:37.884Z,98910.28
2022-08-17T04:25:25.040Z,98912.25
2022-08-17T04:28:15.626Z,98917.50
2022-08-17T04:31:02.342Z,98922.19
2022-08-17T04:33:48.133Z,98921.81
2022-08-17T04:36:34.464Z,98925.69
2022-08-17T04:39:20.167Z,98920.66
2022-08-17T04:42:08.238Z,98925.34
2022-08-17T04:44:54.064Z,98931.22
2022-08-17T04:47:41.553Z,98927.44
2022-08-17T04:50:27.726Z,98927.88
2022-08-17T04:53:16.224Z,98931.44
2022-08-17T04:56:02.037Z,98934.19
2022-08-17T04:58:50.563Z,98932.69
2022-08-17T05:01:38.567Z,98933.16
2022-08-17T05:04:34.165Z,98929.31
2022-08-17T05:07:24.596Z,98935.16
2022-08-17T05:10:12.578Z,98939.84
2022-08-17T05:13:07.061Z,98935.28
2022-08-17T05:15:56.179Z,98936.28
2022-08-17T05:18:42.379Z,98940.72
2022-08-17T05:21:28.851Z,98947.41
2022-08-17T05:24:38.401Z,98946.63
2022-08-17T05:27:21.258Z,98944.75
2022-08-17T05:30:09.650Z,98961.62
2022-08-17T05:33:04.326Z,98958.94
2022-08-17T05:35:52.357Z,98966.00
2022-08-17T05:38:38.315Z,98961.31
2022-08-17T05:41:24.474Z,98955.06
2022-08-17T05:44:10.828Z,98963.66
2022-08-17T05:46:59.386Z,98960.16
2022-08-17T05:49:45.647Z,98965.19
2022-08-17T05:52:48.118Z,98963.63
2022-08-17T05:56:10.877Z,98961.62
2022-08-17T05:59:26.687Z,98966.69
2022-08-17T06:02:24.814Z,98963.56
2022-08-17T06:05:24.491Z,98968.19
2022-08-17T06:08:31.349Z,98972.41
2022-08-17T06:11:53.312Z,98970.03
2022-08-17T06:15:34.151Z,98969.16
2022-08-17T06:18:21.962Z,98968.66
2022-08-17T06:21:08.732Z,98965.50
2022-08-17T06:24:15.722Z,98971.75
2022-08-17T06:27:08.011Z,98970.13
2022-08-17T06:30:16.145Z,98969.94
2022-08-17T06:33:08.436Z,98978.97
2022-08-17T06:36:15.819Z,98977.72
2022-08-17T06:39:18.992Z,98978.41
2022-08-17T06:42:59.871Z,98984.94
2022-08-17T06:45:37.029Z,98978.38
2022-08-17T06:48:39.644Z,98982.56
2022-08-17T06:51:39.670Z,98986.03
2022-08-17T06:54:33.048Z,98984.63
2022-08-17T06:57:23.318Z,98988.16
2022-08-17T07:00:16.292Z,98985.94
2022-08-17T07:03:01.844Z,98988.53
2022-08-17T07:05:56.486Z,98991.88
2022-08-17T07:09:03.841Z,98987.78
2022-08-17T07:11:52.586Z,98980.63
2022-08-17T07:14:48.769Z,98980.31
2022-08-17T07:17:48.096Z,98984.78
2022-08-17T07:20:34.808Z,98984.63
2022-08-17T07:23:39.650Z,98984.22
2022-08-17T07:26:25.683Z,98987.09
2022-08-17T07:29:16.708Z,98989.56
2022-08-17T07:32:04.194Z,98994.94
2022-08-17T07:35:16.953Z,98996.06
2022-08-17T07:38:24.661Z,98995.37
2022-08-17T07:41:12.825Z,98999.53
2022-08-17T07:43:58.506Z,99002.22
2022-08-17T07:46:50.832Z,98998.41
2022-08-17T07:49:42.718Z,98992.69
2022-08-17T07:52:50.502Z,98996.09
2022-08-17T07:55:37.969Z,98999.28
2022-08-17T07:58:25.737Z,98998.16
2022-08-17T08:01:15.450Z,98992.44
2022-08-17T08:07:41.862Z,98997.03
2022-08-17T08:10:42.719Z,99008.66
2022-08-17T08:13:32.149Z,98996.97
2022-08-17T08:16:28.906Z,99014.75
2022-08-17T08:19:18.183Z,99008.22
2022-08-17T08:22:11.722Z,99007.78
2022-08-17T08:25:06.636Z,99013.62
2022-08-17T08:28:21.586Z,99004.84
2022-08-17T08:31:27.043Z,99013.44
2022-08-17T08:35:00.800Z,99009.25
2022-08-17T08:37:43.241Z,99010.19
2022-08-17T08:40:48.578Z,99011.00
2022-08-17T08:43:52.224Z,99011.41
2022-08-17T08:46:49.855Z,99014.16
2022-08-17T08:50:04.828Z,99017.25
2022-08-17T08:53:17.076Z,99010.72
2022-08-17T08:56:28.081Z,99013.94
2022-08-17T08:59:30.990Z,99009.28
2022-08-17T09:02:51.256Z,99014.28
2022-08-17T09:06:02.944Z,99011.13
2022-08-17T09:09:10.369Z,99008.25
2022-08-17T09:12:14.595Z,98994.94
2022-08-17T09:15:18.330Z,99009.13
2022-08-17T09:19:01.044Z,99014.53
2022-08-17T09:21:24.133Z,99004.78
2022-08-17T09:24:31.152Z,98996.22
2022-08-17T09:27:55.345Z,99010.34
2022-08-17T09:30:44.369Z,99000.59
2022-08-17T09:33:35.397Z,99000.41
2022-08-17T09:37:03.124Z,98998.31
2022-08-17T09:40:24.460Z,99006.56
2022-08-17T09:43:39.394Z,98993.81
2022-08-17T09:46:29.440Z,98996.06
2022-08-17T09:49:46.411Z,98995.66
2022-08-17T09:52:32.619Z,98996.34
2022-08-17T09:55:18.989Z,98997.78
2022-08-17T09:58:15.807Z,98996.19
2022-08-17T10:01:10.065Z,98992.38
2022-08-17T10:04:17.764Z,98994.63
2022-08-17T10:07:19.273Z,98994.84
2022-08-17T10:10:14.070Z,98994.53
2022-08-17T10:13:53.006Z,98991.06
2022-08-17T10:16:44.292Z,98999.91
2022-08-17T10:19:44.079Z,98991.09
2022-08-17T10:22:44.611Z,98994.22
2022-08-17T10:25:53.685Z,98994.34
2022-08-17T10:28:51.937Z,98995.16
2022-08-17T10:31:50.564Z,98997.19
2022-08-17T10:34:41.525Z,98991.41
2022-08-17T10:37:48.141Z,98991.06
2022-08-17T10:40:51.761Z,98988.72
2022-08-17T10:44:35.419Z,98984.81
2022-08-17T10:47:15.917Z,98983.12
2022-08-17T10:50:40.229Z,98978.84
2022-08-17T10:53:32.789Z,98981.09
2022-08-17T10:56:22.269Z,98984.91
2022-08-17T10:59:33.830Z,98986.28
2022-08-17T11:02:22.954Z,98988.50
2022-08-17T11:05:15.877Z,98977.47
2022-08-17T11:08:22.404Z,98987.00
2022-08-17T11:11:15.087Z,98970.41
2022-08-17T11:14:28.082Z,98969.56
2022-08-17T11:17:39.566Z,98972.97
2022-08-17T11:20:28.417Z,98967.75
2022-08-17T11:23:33.061Z,98970.03
2022-08-17T11:26:23.568Z,98965.81
2022-08-17T11:29:24.650Z,98959.28
2022-08-17T11:32:35.948Z,98955.75
2022-08-17T11:35:22.326Z,98950.50
2022-08-17T11:38:24.320Z,98941.34
2022-08-17T11:41:16.386Z,98944.91
2022-08-17T11:44:09.131Z,98944.59
2022-08-17T11:47:30.662Z,98938.75
2022-08-17T11:50:45.706Z,98938.16
2022-08-17T11:53:37.739Z,98935.34
2022-08-17T11:56:53.154Z,98926.47
2022-08-17T11:59:39.298Z,98933.28
2022-08-17T12:02:29.929Z,98931.00
2022-08-17T12:05:17.866Z,98935.28
2022-08-17T12:08:17.342Z,98925.69
2022-08-17T12:11:07.576Z,98924.34
2022-08-17T12:13:56.185Z,98919.22
2022-08-17T12:16:42.434Z,98918.31
2022-08-17T12:19:28.757Z,98919.53
2022-08-17T12:22:25.133Z,98917.31
2022-08-17T12:25:16.843Z,98915.94
2022-08-17T12:28:06.002Z,98912.72
2022-08-17T12:30:53.463Z,98904.72
2022-08-17T12:33:44.069Z,98898.56
2022-08-17T12:36:30.668Z,98896.16
2022-08-17T12:39:22.307Z,98892.47
2022-08-17T12:42:23.457Z,98893.00
2022-08-17T12:45:27.540Z,98899.56
2022-08-17T12:48:22.763Z,98909.38
2022-08-17T12:51:08.929Z,98895.94
2022-08-17T12:53:55.260Z,98896.09
2022-08-17T12:56:45.719Z,98895.66
2022-08-17T12:59:33.634Z,98897.00
2022-08-17T13:02:25.180Z,98892.34
2022-08-17T13:05:17.278Z,98892.44
2022-08-17T13:08:14.675Z,98884.47
2022-08-17T13:11:05.395Z,98887.25
2022-08-17T13:13:56.234Z,98891.50
2022-08-17T13:16:48.590Z,98884.22
2022-08-17T13:19:41.018Z,98887.31
2022-08-17T13:22:28.650Z,98884.84
2022-08-17T13:25:16.769Z,98880.69
2022-08-17T13:28:02.843Z,98877.41
2022-08-17T13:30:48.728Z,98880.28
2022-08-17T13:33:43.331Z,98878.69
2022-08-17T13:36:31.248Z,98878.69
2022-08-17T13:39:20.160Z,98872.53
2022-08-17T13:42:51.741Z,98880.53
2022-08-17T13:45:45.408Z,98866.97
2022-08-17T13:48:36.926Z,98860.56
2022-08-17T13:51:26.409Z,98863.00
2022-08-17T13:54:30.011Z,98861.09
2022-08-17T13:57:23.757Z,98852.13
2022-08-17T14:00:19.578Z,98861.75
2022-08-17T14:03:05.768Z,98865.37
2022-08-17T14:05:52.437Z,98864.78
2022-08-17T14:08:38.582Z,98869.25
2022-08-17T14:11:24.359Z,98864.06
2022-08-17T14:14:12.554Z,98859.53
2022-08-17T14:16:59.377Z,98858.75
2022-08-17T14:19:45.523Z,98853.19
2022-08-17T14:22:34.081Z,98844.53
2022-08-17T14:25:23.176Z,98848.53
2022-08-17T14:28:11.135Z,98856.72
2022-08-17T14:30:57.274Z,98858.31
2022-08-17T14:33:49.163Z,98856.66
2022-08-17T14:36:35.420Z,98849.53
2022-08-17T14:39:21.497Z,98854.44
2022-08-17T14:42:07.489Z,98851.84
2022-08-17T14:44:54.667Z,98845.44
2022-08-17T14:47:43.831Z,98847.22
2022-08-17T14:50:30.085Z,98852.53
2022-08-17T14:53:23.380Z,98849.78
2022-08-17T14:56:09.301Z,98850.22
2022-08-17T14:58:55.524Z,98849.63
2022-08-17T15:01:41.216Z,98858.81
2022-08-17T15:04:27.348Z,98853.78
2022-08-17T15:07:16.643Z,98850.63
2022-08-17T15:10:02.858Z,98856.31
2022-08-17T15:12:49.087Z,98853.97
2022-08-17T15:15:35.767Z,98861.38
2022-08-17T15:18:21.646Z,98853.44
2022-08-17T15:21:09.232Z,98846.28
2022-08-17T15:23:55.226Z,98844.50
2022-08-17T15:26:41.065Z,98850.37
2022-08-17T15:29:27.088Z,98842.25
2022-08-17T15:32:28.036Z,98852.03
2022-08-17T15:35:14.127Z,98848.50
2022-08-17T15:38:11.171Z,98847.22
2022-08-17T15:40:57.967Z,98851.31
2022-08-17T15:43:48.422Z,98848.34
2022-08-17T15:46:35.300Z,98848.84
2022-08-17T15:49:21.374Z,98843.66
2022-08-17T15:52:20.526Z,98851.66
2022-08-17T15:55:09.659Z,98838.56
2022-08-17T15:57:55.328Z,98846.12
2022-08-17T16:00:49.911Z,98847.59
2022-08-17T16:04:01.298Z,98845.31
2022-08-17T16:06:45.318Z,98839.62
2022-08-17T16:09:31.254Z,98841.78
2022-08-17T16:12:21.331Z,98842.56
2022-08-17T16:15:07.838Z,98843.81
2022-08-17T16:17:53.802Z,98837.28
2022-08-17T16:20:40.655Z,98840.13
2022-08-17T16:23:26.391Z,98826.00
2022-08-17T16:26:12.377Z,98832.12
2022-08-17T16:29:00.807Z,98837.94
2022-08-17T16:31:47.194Z,98839.25
2022-08-17T16:34:33.163Z,98844.19
2022-08-17T16:37:19.045Z,98839.16
2022-08-17T16:40:06.949Z,98839.59
2022-08-17T16:42:53.755Z,98832.03
2022-08-17T16:45:39.493Z,98838.38
2022-08-17T16:48:27.291Z,98841.47
2022-08-17T16:51:14.449Z,98835.91
2022-08-17T16:54:00.589Z,98838.31
2022-08-17T16:56:46.740Z,98832.56
2022-08-17T16:59:40.846Z,98843.22
2022-08-17T17:02:35.159Z,98840.59
2022-08-17T17:05:45.072Z,98853.09
2022-08-17T17:08:50.547Z,98842.78
2022-08-17T17:11:42.590Z,98848.91
2022-08-17T17:14:41.941Z,98844.53
2022-08-17T17:17:35.494Z,98849.78
2022-08-17T17:20:36.416Z,98840.31
2022-08-17T17:23:40.701Z,98846.66
2022-08-17T17:26:38.579Z,98849.06
2022-08-17T17:29:47.427Z,98847.22
2022-08-17T17:32:41.540Z,98851.41
2022-08-17T17:35:55.300Z,98858.06
2022-08-17T17:38:45.707Z,98856.34
2022-08-17T17:41:43.597Z,98862.78
2022-08-17T17:44:35.513Z,98855.19
2022-08-17T17:47:21.644Z,98857.00
2022-08-17T17:50:08.135Z,98870.75
2022-08-17T17:53:34.828Z,98872.31
2022-08-17T17:56:53.369Z,98870.00
2022-08-17T17:59:44.211Z,98878.72
2022-08-17T18:02:36.456Z,98872.59
2022-08-17T18:05:39.935Z,98869.81
2022-08-17T18:08:32.109Z,98873.06
2022-08-17T18:11:51.387Z,98874.16
2022-08-17T18:14:58.258Z,98876.81
2022-08-17T18:18:14.300Z,98886.03
2022-08-17T18:21:02.018Z,98878.47
2022-08-17T18:23:53.023Z,98880.47
2022-08-17T18:26:40.420Z,98886.06
2022-08-17T18:29:35.147Z,98888.28
2022-08-17T18:32:30.033Z,98892.94
2022-08-17T18:35:18.862Z,98891.66
2022-08-17T18:38:27.090Z,98891.72
2022-08-17T18:41:19.663Z,98897.41
2022-08-17T18:44:20.851Z,98903.06
2022-08-17T18:47:15.933Z,98897.84
2022-08-17T18:50:26.344Z,98902.50
2022-08-17T18:53:39.227Z,98898.03
2022-08-17T18:56:36.794Z,98899.75
2022-08-17T18:59:34.913Z,98912.34
2022-08-17T19:02:43.345Z,98905.63
2022-08-17T19:05:41.756Z,98908.44
2022-08-17T19:08:28.135Z,98914.81
2022-08-17T19:11:23.873Z,98907.09
2022-08-17T19:14:12.480Z,98913.03
2022-08-17T19:17:10.106Z,98921.53
2022-08-17T19:20:02.713Z,98913.47
2022-08-17T19:23:00.090Z,98912.41
2022-08-17T19:25:52.591Z,98918.41
2022-08-17T19:28:48.450Z,98917.63
2022-08-17T19:31:34.954Z,98923.03
2022-08-17T19:34:33.184Z,98929.19
2022-08-17T19:37:23.145Z,98933.47
2022-08-17T19:40:52.335Z,98947.78
2022-08-17T19:43:44.511Z,98938.31
2022-08-17T19:46:56.251Z,98948.84
2022-08-17T19:49:49.718Z,98944.03
2022-08-17T19:52:39.221Z,98950.28
2022-08-17T19:55:36.142Z,98954.34
2022-08-17T19:58:34.979Z,98950.16
2022-08-17T20:01:34.818Z,98945.62
2022-08-17T20:04:31.722Z,98952.62
2022-08-17T20:07:57.754Z,98946.47
2022-08-17T20:10:54.570Z,98948.59
2022-08-17T20:13:49.206Z,98940.38
2022-08-17T20:16:35.196Z,98938.16
2022-08-17T20:19:38.083Z,98939.09
2022-08-17T20:22:27.146Z,98936.22
2022-08-17T20:25:23.606Z,98934.72
2022-08-17T20:28:22.740Z,98937.81
2022-08-17T20:31:47.324Z,98940.47
2022-08-17T20:34:38.010Z,98937.31
2022-08-17T20:37:29.122Z,98944.06
2022-08-17T20:40:21.007Z,98935.41
2022-08-17T20:43:34.882Z,98934.72
2022-08-17T20:46:30.569Z,98938.53
2022-08-17T20:49:22.226Z,98930.09
2022-08-17T20:52:36.058Z,98930.19
2022-08-17T20:55:33.892Z,98933.25
2022-08-17T20:58:19.726Z,98923.94
2022-08-17T21:01:15.083Z,98925.16
2022-08-17T21:04:06.184Z,98922.38
2022-08-17T21:07:32.901Z,98922.41
2022-08-17T21:10:25.773Z,98922.47
2022-08-17T21:13:11.501Z,98918.91
2022-08-17T21:16:09.511Z,98919.00
2022-08-17T21:19:13.251Z,98927.37
2022-08-17T21:22:25.443Z,98921.56
2022-08-17T21:25:39.366Z,98915.38
2022-08-17T21:28:34.104Z,98927.53
2022-08-17T21:31:36.328Z,98923.63
2022-08-17T21:34:27.891Z,98920.50
2022-08-17T21:37:19.832Z,98927.56
2022-08-17T21:40:09.872Z,98929.94
2022-08-17T21:43:06.231Z,98931.47
2022-08-17T21:46:00.536Z,98934.22
2022-08-17T21:48:48.296Z,98943.16
2022-08-17T21:51:37.982Z,98940.00
2022-08-17T21:54:29.707Z,98934.59
2022-08-17T21:57:22.366Z,98928.88
2022-08-17T22:00:09.049Z,98930.91
2022-08-17T22:02:57.826Z,98944.25
2022-08-17T22:05:44.391Z,98935.28
2022-08-17T22:08:30.887Z,98934.78
2022-08-17T22:11:16.841Z,98942.59
2022-08-17T22:14:06.003Z,98959.13
2022-08-17T22:17:09.663Z,98959.53
2022-08-17T22:20:00.440Z,98963.00
2022-08-17T22:22:46.319Z,98968.00
2022-08-17T22:25:34.833Z,98970.34
2022-08-17T22:28:45.843Z,98975.75
2022-08-17T22:31:55.742Z,98975.66
2022-08-17T22:34:41.790Z,98972.91
2022-08-17T22:37:28.785Z,98981.94
2022-08-17T22:40:32.456Z,98978.41
2022-08-17T22:43:20.695Z,98981.19
2022-08-17T22:46:12.489Z,98990.16
2022-08-17T22:48:59.083Z,98997.59
2022-08-17T22:51:45.299Z,98996.41
2022-08-17T22:54:31.708Z,98990.25
2022-08-17T22:57:18.785Z,98993.00
2022-08-17T23:00:28.602Z,99003.50
2022-08-17T23:03:14.828Z,99003.59
2022-08-17T23:06:05.691Z,99006.75
2022-08-17T23:08:52.901Z,99014.97
2022-08-17T23:11:49.132Z,99011.88
2022-08-17T23:14:40.595Z,99014.97
2022-08-17T23:17:35.122Z,99013.13
2022-08-17T23:20:22.960Z,99023.28
2022-08-17T23:23:10.617Z,99020.56
2022-08-17T23:25:56.563Z,99015.88
2022-08-17T23:28:42.865Z,99016.25
2022-08-17T23:31:28.573Z,99019.78
2022-08-17T23:34:15.200Z,99022.53
2022-08-17T23:37:00.981Z,99022.50
2022-08-17T23:39:47.541Z,99014.66
2022-08-17T23:42:33.815Z,99007.69
2022-08-17T23:45:20.365Z,99001.75
2022-08-17T23:48:06.578Z,99004.50
2022-08-17T23:50:54.733Z,98997.91
2022-08-17T23:53:47.313Z,98997.16
2022-08-17T23:56:33.434Z,98997.53
2022-08-17T23:59:21.077Z,98995.91
